sensor_id;sensor_type;location;lat;lon;timestamp;temperature;humidity
3850;DHT22;1940;51.052;13.678;2023-03-04T00:02:12;2.00;87.80
3850;DHT22;1940;51.052;13.678;2023-03-04T00:04:38;1.90;88.10
3850;DHT22;1940;51.052;13.678;2023-03-04T00:07:04;1.80;88.50
3850;DHT22;1940;51.052;13.678;2023-03-04T00:09:29;1.90;88.60
3850;DHT22;1940;51.052;13.678;2023-03-04T00:11:54;1.90;88.10
3850;DHT22;1940;51.052;13.678;2023-03-04T00:14:20;1.90;88.10
3850;DHT22;1940;51.052;13.678;2023-03-04T00:16:46;1.90;88.50
3850;DHT22;1940;51.052;13.678;2023-03-04T00:19:13;1.90;88.20
3850;DHT22;1940;51.052;13.678;2023-03-04T00:21:39;1.90;88.30
3850;DHT22;1940;51.052;13.678;2023-03-04T00:24:05;2.00;88.20
3850;DHT22;1940;51.052;13.678;2023-03-04T00:26:31;2.00;88.00
3850;DHT22;1940;51.052;13.678;2023-03-04T00:28:56;2.10;87.90
3850;DHT22;1940;51.052;13.678;2023-03-04T00:31:22;2.10;87.80
3850;DHT22;1940;51.052;13.678;2023-03-04T00:33:47;2.10;87.80
3850;DHT22;1940;51.052;13.678;2023-03-04T00:36:13;2.00;87.90
3850;DHT22;1940;51.052;13.678;2023-03-04T00:38:38;2.00;88.30
3850;DHT22;1940;51.052;13.678;2023-03-04T00:41:04;2.00;88.30
3850;DHT22;1940;51.052;13.678;2023-03-04T00:43:29;2.00;88.50
3850;DHT22;1940;51.052;13.678;2023-03-04T00:45:56;2.00;88.20
3850;DHT22;1940;51.052;13.678;2023-03-04T00:48:21;2.00;88.30
3850;DHT22;1940;51.052;13.678;2023-03-04T00:50:47;2.10;88.30
3850;DHT22;1940;51.052;13.678;2023-03-04T00:53:13;2.00;88.20
3850;DHT22;1940;51.052;13.678;2023-03-04T00:55:39;2.00;88.50
3850;DHT22;1940;51.052;13.678;2023-03-04T00:58:04;2.00;88.50
3850;DHT22;1940;51.052;13.678;2023-03-04T01:00:29;2.10;88.40
3850;DHT22;1940;51.052;13.678;2023-03-04T01:02:55;2.10;88.10
3850;DHT22;1940;51.052;13.678;2023-03-04T01:05:21;2.10;87.80
3850;DHT22;1940;51.052;13.678;2023-03-04T01:07:46;2.10;88.00
3850;DHT22;1940;51.052;13.678;2023-03-04T01:10:13;2.20;87.80
3850;DHT22;1940;51.052;13.678;2023-03-04T01:12:39;2.20;87.80
3850;DHT22;1940;51.052;13.678;2023-03-04T01:15:07;2.20;87.40
3850;DHT22;1940;51.052;13.678;2023-03-04T01:17:33;2.20;87.50
3850;DHT22;1940;51.052;13.678;2023-03-04T01:19:58;2.20;87.50
3850;DHT22;1940;51.052;13.678;2023-03-04T01:22:24;2.20;87.60
3850;DHT22;1940;51.052;13.678;2023-03-04T01:24:49;2.20;87.50
3850;DHT22;1940;51.052;13.678;2023-03-04T01:27:15;2.10;87.70
3850;DHT22;1940;51.052;13.678;2023-03-04T01:29:40;2.10;87.70
3850;DHT22;1940;51.052;13.678;2023-03-04T01:32:06;2.10;87.50
3850;DHT22;1940;51.052;13.678;2023-03-04T01:34:31;2.20;87.50
3850;DHT22;1940;51.052;13.678;2023-03-04T01:36:57;2.20;87.30
3850;DHT22;1940;51.052;13.678;2023-03-04T01:39:22;2.20;87.20
3850;DHT22;1940;51.052;13.678;2023-03-04T01:41:48;2.20;87.40
3850;DHT22;1940;51.052;13.678;2023-03-04T01:44:14;2.20;87.20
3850;DHT22;1940;51.052;13.678;2023-03-04T01:46:49;2.20;87.20
3850;DHT22;1940;51.052;13.678;2023-03-04T01:49:15;2.10;87.00
3850;DHT22;1940;51.052;13.678;2023-03-04T01:51:43;2.10;87.30
3850;DHT22;1940;51.052;13.678;2023-03-04T01:54:10;2.10;87.30
3850;DHT22;1940;51.052;13.678;2023-03-04T01:56:38;2.00;87.50
3850;DHT22;1940;51.052;13.678;2023-03-04T01:59:15;2.00;87.70
3850;DHT22;1940;51.052;13.678;2023-03-04T02:01:48;2.10;87.70
3850;DHT22;1940;51.052;13.678;2023-03-04T02:04:16;2.10;87.60
3850;DHT22;1940;51.052;13.678;2023-03-04T02:06:42;2.20;87.20
3850;DHT22;1940;51.052;13.678;2023-03-04T02:09:09;2.00;87.40
3850;DHT22;1940;51.052;13.678;2023-03-04T02:11:35;2.00;87.70
3850;DHT22;1940;51.052;13.678;2023-03-04T02:14:02;2.00;87.60
3850;DHT22;1940;51.052;13.678;2023-03-04T02:16:28;2.10;87.50
3850;DHT22;1940;51.052;13.678;2023-03-04T02:18:54;2.10;87.50
3850;DHT22;1940;51.052;13.678;2023-03-04T02:21:30;2.10;87.40
3850;DHT22;1940;51.052;13.678;2023-03-04T02:24:16;2.10;87.50
3850;DHT22;1940;51.052;13.678;2023-03-04T02:26:42;2.10;87.50
3850;DHT22;1940;51.052;13.678;2023-03-04T02:29:10;2.10;87.30
3850;DHT22;1940;51.052;13.678;2023-03-04T02:31:40;2.10;87.50
3850;DHT22;1940;51.052;13.678;2023-03-04T02:34:17;2.10;87.30
3850;DHT22;1940;51.052;13.678;2023-03-04T02:36:44;2.00;87.60
3850;DHT22;1940;51.052;13.678;2023-03-04T02:41:49;2.00;87.80
3850;DHT22;1940;51.052;13.678;2023-03-04T02:44:18;2.20;87.30
3850;DHT22;1940;51.052;13.678;2023-03-04T02:46:44;2.10;87.30
3850;DHT22;1940;51.052;13.678;2023-03-04T02:49:09;2.00;87.60
3850;DHT22;1940;51.052;13.678;2023-03-04T02:51:35;2.00;87.70
3850;DHT22;1940;51.052;13.678;2023-03-04T02:54:01;1.90;87.70
3850;DHT22;1940;51.052;13.678;2023-03-04T02:56:26;1.90;87.80
3850;DHT22;1940;51.052;13.678;2023-03-04T02:58:52;2.00;87.90
3850;DHT22;1940;51.052;13.678;2023-03-04T03:01:17;2.00;87.80
3850;DHT22;1940;51.052;13.678;2023-03-04T03:03:42;2.00;87.90
3850;DHT22;1940;51.052;13.678;2023-03-04T03:06:08;2.00;88.00
3850;DHT22;1940;51.052;13.678;2023-03-04T03:08:34;2.00;87.90
3850;DHT22;1940;51.052;13.678;2023-03-04T03:10:59;2.00;87.90
3850;DHT22;1940;51.052;13.678;2023-03-04T03:13:25;2.00;87.90
3850;DHT22;1940;51.052;13.678;2023-03-04T03:15:50;1.90;88.20
3850;DHT22;1940;51.052;13.678;2023-03-04T03:18:16;2.00;88.20
3850;DHT22;1940;51.052;13.678;2023-03-04T03:20:41;2.00;88.00
3850;DHT22;1940;51.052;13.678;2023-03-04T03:23:07;2.00;88.10
3850;DHT22;1940;51.052;13.678;2023-03-04T03:25:33;1.90;88.30
3850;DHT22;1940;51.052;13.678;2023-03-04T03:27:58;2.00;88.30
3850;DHT22;1940;51.052;13.678;2023-03-04T03:30:24;2.00;88.20
3850;DHT22;1940;51.052;13.678;2023-03-04T03:32:49;2.10;88.20
3850;DHT22;1940;51.052;13.678;2023-03-04T03:35:15;2.20;87.70
3850;DHT22;1940;51.052;13.678;2023-03-04T03:37:41;2.10;87.60
3850;DHT22;1940;51.052;13.678;2023-03-04T03:40:07;2.20;87.40
3850;DHT22;1940;51.052;13.678;2023-03-04T03:42:32;2.20;87.10
3850;DHT22;1940;51.052;13.678;2023-03-04T03:44:58;2.20;87.20
3850;DHT22;1940;51.052;13.678;2023-03-04T03:47:23;2.20;87.40
3850;DHT22;1940;51.052;13.678;2023-03-04T03:49:49;2.20;87.00
3850;DHT22;1940;51.052;13.678;2023-03-04T03:52:15;2.10;87.30
3850;DHT22;1940;51.052;13.678;2023-03-04T03:54:40;2.10;87.20
3850;DHT22;1940;51.052;13.678;2023-03-04T03:57:06;2.10;87.50
3850;DHT22;1940;51.052;13.678;2023-03-04T03:59:31;2.10;87.30
3850;DHT22;1940;51.052;13.678;2023-03-04T04:01:57;2.10;87.30
3850;DHT22;1940;51.052;13.678;2023-03-04T04:04:22;2.10;87.30
3850;DHT22;1940;51.052;13.678;2023-03-04T04:06:48;2.00;87.30
3850;DHT22;1940;51.052;13.678;2023-03-04T04:09:13;2.00;87.60
3850;DHT22;1940;51.052;13.678;2023-03-04T04:11:39;2.10;87.50
3850;DHT22;1940;51.052;13.678;2023-03-04T04:14:04;2.10;87.30
3850;DHT22;1940;51.052;13.678;2023-03-04T04:16:30;2.10;87.20
3850;DHT22;1940;51.052;13.678;2023-03-04T04:18:55;2.10;87.30
3850;DHT22;1940;51.052;13.678;2023-03-04T04:21:21;2.00;87.60
3850;DHT22;1940;51.052;13.678;2023-03-04T04:23:46;2.00;87.50
3850;DHT22;1940;51.052;13.678;2023-03-04T04:26:12;2.00;87.70
3850;DHT22;1940;51.052;13.678;2023-03-04T04:28:37;2.10;87.50
3850;DHT22;1940;51.052;13.678;2023-03-04T04:31:06;2.10;87.40
3850;DHT22;1940;51.052;13.678;2023-03-04T04:33:32;2.10;87.60
3850;DHT22;1940;51.052;13.678;2023-03-04T04:35:58;2.10;87.80
3850;DHT22;1940;51.052;13.678;2023-03-04T04:38:25;2.20;87.40
3850;DHT22;1940;51.052;13.678;2023-03-04T04:40:51;2.10;87.40
3850;DHT22;1940;51.052;13.678;2023-03-04T04:43:16;2.20;87.30
3850;DHT22;1940;51.052;13.678;2023-03-04T04:45:41;2.20;87.00
3850;DHT22;1940;51.052;13.678;2023-03-04T04:48:07;2.20;87.10
3850;DHT22;1940;51.052;13.678;2023-03-04T04:50:33;2.20;87.00
3850;DHT22;1940;51.052;13.678;2023-03-04T04:52:59;2.30;86.80
3850;DHT22;1940;51.052;13.678;2023-03-04T04:55:24;2.30;86.30
3850;DHT22;1940;51.052;13.678;2023-03-04T04:57:50;2.20;86.70
3850;DHT22;1940;51.052;13.678;2023-03-04T05:00:16;2.20;86.70
3850;DHT22;1940;51.052;13.678;2023-03-04T05:02:43;2.10;87.00
3850;DHT22;1940;51.052;13.678;2023-03-04T05:05:08;2.10;87.20
3850;DHT22;1940;51.052;13.678;2023-03-04T05:07:34;2.20;87.20
3850;DHT22;1940;51.052;13.678;2023-03-04T05:10:00;2.10;87.10
3850;DHT22;1940;51.052;13.678;2023-03-04T05:12:25;2.10;87.20
3850;DHT22;1940;51.052;13.678;2023-03-04T05:14:51;2.10;87.30
3850;DHT22;1940;51.052;13.678;2023-03-04T05:17:16;2.10;87.20
3850;DHT22;1940;51.052;13.678;2023-03-04T05:19:42;2.20;87.20
3850;DHT22;1940;51.052;13.678;2023-03-04T05:22:07;2.20;86.90
3850;DHT22;1940;51.052;13.678;2023-03-04T05:24:33;2.20;86.90
3850;DHT22;1940;51.052;13.678;2023-03-04T05:26:59;2.20;86.90
3850;DHT22;1940;51.052;13.678;2023-03-04T05:29:25;2.20;86.70
3850;DHT22;1940;51.052;13.678;2023-03-04T05:31:50;2.30;86.60
3850;DHT22;1940;51.052;13.678;2023-03-04T05:34:16;2.20;87.00
3850;DHT22;1940;51.052;13.678;2023-03-04T05:36:42;2.20;86.90
3850;DHT22;1940;51.052;13.678;2023-03-04T05:39:07;2.30;87.00
3850;DHT22;1940;51.052;13.678;2023-03-04T05:41:33;2.30;86.60
3850;DHT22;1940;51.052;13.678;2023-03-04T05:43:58;2.30;86.40
3850;DHT22;1940;51.052;13.678;2023-03-04T05:46:23;2.30;86.50
3850;DHT22;1940;51.052;13.678;2023-03-04T05:48:50;2.30;86.60
3850;DHT22;1940;51.052;13.678;2023-03-04T05:51:16;2.30;87.00
3850;DHT22;1940;51.052;13.678;2023-03-04T05:53:41;2.30;86.90
3850;DHT22;1940;51.052;13.678;2023-03-04T05:56:12;2.40;86.80
3850;DHT22;1940;51.052;13.678;2023-03-04T05:58:38;2.40;86.50
3850;DHT22;1940;51.052;13.678;2023-03-04T06:01:04;2.50;86.10
3850;DHT22;1940;51.052;13.678;2023-03-04T06:03:30;2.50;85.90
3850;DHT22;1940;51.052;13.678;2023-03-04T06:05:55;2.50;85.90
3850;DHT22;1940;51.052;13.678;2023-03-04T06:08:21;2.50;85.90
3850;DHT22;1940;51.052;13.678;2023-03-04T06:10:46;2.60;85.90
3850;DHT22;1940;51.052;13.678;2023-03-04T06:13:12;2.60;85.70
3850;DHT22;1940;51.052;13.678;2023-03-04T06:15:38;2.60;86.00
3850;DHT22;1940;51.052;13.678;2023-03-04T06:18:05;2.70;85.90
3850;DHT22;1940;51.052;13.678;2023-03-04T06:20:31;2.70;86.00
3850;DHT22;1940;51.052;13.678;2023-03-04T06:22:57;2.70;85.80
3850;DHT22;1940;51.052;13.678;2023-03-04T06:25:22;2.70;85.90
3850;DHT22;1940;51.052;13.678;2023-03-04T06:27:48;2.70;85.90
3850;DHT22;1940;51.052;13.678;2023-03-04T06:30:13;2.70;86.00
3850;DHT22;1940;51.052;13.678;2023-03-04T06:32:39;2.70;85.90
3850;DHT22;1940;51.052;13.678;2023-03-04T06:35:05;2.70;85.90
3850;DHT22;1940;51.052;13.678;2023-03-04T06:37:31;2.70;86.00
3850;DHT22;1940;51.052;13.678;2023-03-04T06:39:56;2.60;86.40
3850;DHT22;1940;51.052;13.678;2023-03-04T06:42:22;2.60;86.40
3850;DHT22;1940;51.052;13.678;2023-03-04T06:44:48;2.60;87.30
3850;DHT22;1940;51.052;13.678;2023-03-04T06:47:14;2.70;87.10
3850;DHT22;1940;51.052;13.678;2023-03-04T06:49:40;2.70;86.70
3850;DHT22;1940;51.052;13.678;2023-03-04T06:52:05;2.70;86.60
3850;DHT22;1940;51.052;13.678;2023-03-04T06:54:31;2.70;86.70
3850;DHT22;1940;51.052;13.678;2023-03-04T06:56:56;2.80;86.60
3850;DHT22;1940;51.052;13.678;2023-03-04T06:59:22;2.80;86.60
3850;DHT22;1940;51.052;13.678;2023-03-04T07:01:48;2.80;87.00
3850;DHT22;1940;51.052;13.678;2023-03-04T07:04:13;2.80;87.00
3850;DHT22;1940;51.052;13.678;2023-03-04T07:06:39;2.80;86.90
3850;DHT22;1940;51.052;13.678;2023-03-04T07:09:05;2.80;86.90
3850;DHT22;1940;51.052;13.678;2023-03-04T07:11:30;2.80;87.00
3850;DHT22;1940;51.052;13.678;2023-03-04T07:13:56;2.80;87.00
3850;DHT22;1940;51.052;13.678;2023-03-04T07:16:22;2.90;87.10
3850;DHT22;1940;51.052;13.678;2023-03-04T07:18:48;2.90;87.20
3850;DHT22;1940;51.052;13.678;2023-03-04T07:21:14;2.90;87.40
3850;DHT22;1940;51.052;13.678;2023-03-04T07:23:40;2.90;87.30
3850;DHT22;1940;51.052;13.678;2023-03-04T07:26:06;2.80;87.80
3850;DHT22;1940;51.052;13.678;2023-03-04T07:28:31;2.80;88.30
3850;DHT22;1940;51.052;13.678;2023-03-04T07:33:38;2.80;88.20
3850;DHT22;1940;51.052;13.678;2023-03-04T07:36:03;2.90;88.00
3850;DHT22;1940;51.052;13.678;2023-03-04T07:38:29;2.90;88.00
3850;DHT22;1940;51.052;13.678;2023-03-04T07:40:58;2.90;88.10
3850;DHT22;1940;51.052;13.678;2023-03-04T07:43:24;2.90;88.30
3850;DHT22;1940;51.052;13.678;2023-03-04T07:45:49;2.90;88.30
3850;DHT22;1940;51.052;13.678;2023-03-04T07:48:15;3.00;88.10
3850;DHT22;1940;51.052;13.678;2023-03-04T07:50:40;3.00;88.30
3850;DHT22;1940;51.052;13.678;2023-03-04T07:53:06;3.00;88.70
3850;DHT22;1940;51.052;13.678;2023-03-04T07:55:31;3.00;88.80
3850;DHT22;1940;51.052;13.678;2023-03-04T07:57:57;3.00;88.90
3850;DHT22;1940;51.052;13.678;2023-03-04T08:00:22;3.10;88.80
3850;DHT22;1940;51.052;13.678;2023-03-04T08:02:48;3.20;88.60
3850;DHT22;1940;51.052;13.678;2023-03-04T08:05:14;3.30;88.10
3850;DHT22;1940;51.052;13.678;2023-03-04T08:07:40;3.40;88.00
3850;DHT22;1940;51.052;13.678;2023-03-04T08:10:05;3.50;87.50
3850;DHT22;1940;51.052;13.678;2023-03-04T08:12:32;3.60;87.20
3850;DHT22;1940;51.052;13.678;2023-03-04T08:14:58;3.60;87.20
3850;DHT22;1940;51.052;13.678;2023-03-04T08:17:23;3.60;87.10
3850;DHT22;1940;51.052;13.678;2023-03-04T08:19:49;3.70;87.00
3850;DHT22;1940;51.052;13.678;2023-03-04T08:22:14;3.80;86.30
3850;DHT22;1940;51.052;13.678;2023-03-04T08:24:40;4.00;86.30
3850;DHT22;1940;51.052;13.678;2023-03-04T08:27:06;4.20;85.70
3850;DHT22;1940;51.052;13.678;2023-03-04T08:29:31;4.20;85.70
3850;DHT22;1940;51.052;13.678;2023-03-04T08:31:57;4.10;86.10
3850;DHT22;1940;51.052;13.678;2023-03-04T08:34:25;4.10;86.30
3850;DHT22;1940;51.052;13.678;2023-03-04T08:36:51;4.10;86.80
3850;DHT22;1940;51.052;13.678;2023-03-04T08:39:17;4.10;86.80
3850;DHT22;1940;51.052;13.678;2023-03-04T08:41:43;4.00;86.70
3850;DHT22;1940;51.052;13.678;2023-03-04T08:44:09;4.10;86.90
3850;DHT22;1940;51.052;13.678;2023-03-04T08:46:36;4.30;86.60
3850;DHT22;1940;51.052;13.678;2023-03-04T08:49:02;4.40;86.20
3850;DHT22;1940;51.052;13.678;2023-03-04T08:51:28;4.50;86.00
3850;DHT22;1940;51.052;13.678;2023-03-04T08:53:54;4.50;85.70
3850;DHT22;1940;51.052;13.678;2023-03-04T08:56:19;4.50;85.80
3850;DHT22;1940;51.052;13.678;2023-03-04T08:58:46;4.40;86.00
3850;DHT22;1940;51.052;13.678;2023-03-04T09:01:13;4.50;86.10
3850;DHT22;1940;51.052;13.678;2023-03-04T09:03:39;4.60;85.80
3850;DHT22;1940;51.052;13.678;2023-03-04T09:06:05;4.50;85.80
3850;DHT22;1940;51.052;13.678;2023-03-04T09:08:31;4.60;85.90
3850;DHT22;1940;51.052;13.678;2023-03-04T09:10:57;4.60;86.10
3850;DHT22;1940;51.052;13.678;2023-03-04T09:13:23;4.40;86.30
3850;DHT22;1940;51.052;13.678;2023-03-04T09:15:50;4.50;86.60
3850;DHT22;1940;51.052;13.678;2023-03-04T09:18:17;4.70;87.10
3850;DHT22;1940;51.052;13.678;2023-03-04T09:20:44;4.70;86.10
3850;DHT22;1940;51.052;13.678;2023-03-04T09:23:10;4.80;85.70
3850;DHT22;1940;51.052;13.678;2023-03-04T09:25:37;4.70;86.20
3850;DHT22;1940;51.052;13.678;2023-03-04T09:28:03;4.80;86.00
3850;DHT22;1940;51.052;13.678;2023-03-04T09:30:28;4.90;86.30
3850;DHT22;1940;51.052;13.678;2023-03-04T09:32:54;4.90;85.80
3850;DHT22;1940;51.052;13.678;2023-03-04T09:35:20;4.90;86.30
3850;DHT22;1940;51.052;13.678;2023-03-04T09:37:45;5.00;86.20
3850;DHT22;1940;51.052;13.678;2023-03-04T09:40:22;4.90;86.30
3850;DHT22;1940;51.052;13.678;2023-03-04T09:42:51;4.70;86.60
3850;DHT22;1940;51.052;13.678;2023-03-04T09:45:21;4.60;86.80
3850;DHT22;1940;51.052;13.678;2023-03-04T09:47:49;4.70;86.70
3850;DHT22;1940;51.052;13.678;2023-03-04T09:50:16;4.50;87.10
3850;DHT22;1940;51.052;13.678;2023-03-04T09:53:17;4.60;86.90
3850;DHT22;1940;51.052;13.678;2023-03-04T09:55:49;4.50;87.10
3850;DHT22;1940;51.052;13.678;2023-03-04T09:58:35;4.50;87.60
3850;DHT22;1940;51.052;13.678;2023-03-04T10:01:21;4.70;87.00
3850;DHT22;1940;51.052;13.678;2023-03-04T10:03:51;4.90;86.60
3850;DHT22;1940;51.052;13.678;2023-03-04T10:06:20;4.90;86.50
3850;DHT22;1940;51.052;13.678;2023-03-04T10:08:52;4.80;86.70
3850;DHT22;1940;51.052;13.678;2023-03-04T10:14:26;5.10;86.60
3850;DHT22;1940;51.052;13.678;2023-03-04T10:17:10;5.20;86.10
3850;DHT22;1940;51.052;13.678;2023-03-04T10:25:24;5.30;84.20
3850;DHT22;1940;51.052;13.678;2023-03-04T10:28:09;5.30;85.20
3850;DHT22;1940;51.052;13.678;2023-03-04T10:33:24;5.60;84.40
3850;DHT22;1940;51.052;13.678;2023-03-04T10:36:02;5.70;83.70
3850;DHT22;1940;51.052;13.678;2023-03-04T10:38:36;5.60;84.40
3850;DHT22;1940;51.052;13.678;2023-03-04T10:41:21;5.60;84.50
3850;DHT22;1940;51.052;13.678;2023-03-04T10:43:50;5.60;85.40
3850;DHT22;1940;51.052;13.678;2023-03-04T10:46:24;5.60;84.90
3850;DHT22;1940;51.052;13.678;2023-03-04T10:48:51;5.60;85.40
3850;DHT22;1940;51.052;13.678;2023-03-04T10:51:23;5.40;85.00
3850;DHT22;1940;51.052;13.678;2023-03-04T10:53:51;5.50;85.00
3850;DHT22;1940;51.052;13.678;2023-03-04T10:56:34;5.50;85.50
3850;DHT22;1940;51.052;13.678;2023-03-04T10:59:28;5.50;85.50
3850;DHT22;1940;51.052;13.678;2023-03-04T11:01:55;5.30;86.30
3850;DHT22;1940;51.052;13.678;2023-03-04T11:04:25;5.30;86.30
3850;DHT22;1940;51.052;13.678;2023-03-04T11:06:51;5.20;86.30
3850;DHT22;1940;51.052;13.678;2023-03-04T11:09:24;5.30;86.30
3850;DHT22;1940;51.052;13.678;2023-03-04T11:11:52;5.20;86.70
3850;DHT22;1940;51.052;13.678;2023-03-04T11:14:23;5.20;86.30
3850;DHT22;1940;51.052;13.678;2023-03-04T11:16:55;5.00;87.20
3850;DHT22;1940;51.052;13.678;2023-03-04T11:19:23;4.80;87.30
3850;DHT22;1940;51.052;13.678;2023-03-04T11:21:50;4.90;87.90
3850;DHT22;1940;51.052;13.678;2023-03-04T11:24:25;5.00;88.10
3850;DHT22;1940;51.052;13.678;2023-03-04T11:26:59;5.20;87.50
3850;DHT22;1940;51.052;13.678;2023-03-04T11:29:30;5.30;86.60
3850;DHT22;1940;51.052;13.678;2023-03-04T11:32:19;5.40;86.80
3850;DHT22;1940;51.052;13.678;2023-03-04T11:35:12;5.40;86.70
3850;DHT22;1940;51.052;13.678;2023-03-04T11:37:58;5.60;85.90
3850;DHT22;1940;51.052;13.678;2023-03-04T11:40:33;5.50;85.90
3850;DHT22;1940;51.052;13.678;2023-03-04T11:43:20;5.40;86.20
3850;DHT22;1940;51.052;13.678;2023-03-04T11:56:55;5.40;86.50
3850;DHT22;1940;51.052;13.678;2023-03-04T11:59:26;5.40;86.80
3850;DHT22;1940;51.052;13.678;2023-03-04T12:02:15;5.60;86.10
3850;DHT22;1940;51.052;13.678;2023-03-04T12:04:58;5.80;85.20
3850;DHT22;1940;51.052;13.678;2023-03-04T12:07:57;5.70;84.30
3850;DHT22;1940;51.052;13.678;2023-03-04T12:10:54;5.80;84.90
3850;DHT22;1940;51.052;13.678;2023-03-04T12:16:38;5.90;84.00
3850;DHT22;1940;51.052;13.678;2023-03-04T12:27:35;5.60;85.00
3850;DHT22;1940;51.052;13.678;2023-03-04T12:30:31;5.60;84.90
3850;DHT22;1940;51.052;13.678;2023-03-04T12:38:58;6.00;83.80
3850;DHT22;1940;51.052;13.678;2023-03-04T12:41:41;6.10;83.00
3850;DHT22;1940;51.052;13.678;2023-03-04T12:44:19;6.10;83.30
3850;DHT22;1940;51.052;13.678;2023-03-04T12:47:19;6.10;83.10
3850;DHT22;1940;51.052;13.678;2023-03-04T12:49:59;6.10;82.90
3850;DHT22;1940;51.052;13.678;2023-03-04T12:52:43;6.00;82.90
3850;DHT22;1940;51.052;13.678;2023-03-04T12:55:17;5.90;83.30
3850;DHT22;1940;51.052;13.678;2023-03-04T12:57:43;6.00;83.10
3850;DHT22;1940;51.052;13.678;2023-03-04T13:06:22;6.00;83.30
3850;DHT22;1940;51.052;13.678;2023-03-04T13:09:01;6.00;83.30
3850;DHT22;1940;51.052;13.678;2023-03-04T13:16:41;6.00;82.80
3850;DHT22;1940;51.052;13.678;2023-03-04T13:25:37;5.80;83.30
3850;DHT22;1940;51.052;13.678;2023-03-04T13:36:01;5.90;82.00
3850;DHT22;1940;51.052;13.678;2023-03-04T13:41:20;6.00;81.30
3850;DHT22;1940;51.052;13.678;2023-03-04T13:43:52;6.00;81.60
3850;DHT22;1940;51.052;13.678;2023-03-04T13:51:32;6.40;80.10
3850;DHT22;1940;51.052;13.678;2023-03-04T13:56:44;6.30;80.10
3850;DHT22;1940;51.052;13.678;2023-03-04T13:59:31;6.30;80.50
3850;DHT22;1940;51.052;13.678;2023-03-04T14:02:07;6.30;80.60
3850;DHT22;1940;51.052;13.678;2023-03-04T14:04:36;6.50;80.30
3850;DHT22;1940;51.052;13.678;2023-03-04T14:07:26;6.60;79.70
3850;DHT22;1940;51.052;13.678;2023-03-04T14:12:19;6.60;79.90
3850;DHT22;1940;51.052;13.678;2023-03-04T14:14:50;6.50;80.00
3850;DHT22;1940;51.052;13.678;2023-03-04T14:17:30;6.50;80.40
3850;DHT22;1940;51.052;13.678;2023-03-04T14:19:57;6.40;80.20
3850;DHT22;1940;51.052;13.678;2023-03-04T14:22:32;6.40;80.70
3850;DHT22;1940;51.052;13.678;2023-03-04T14:27:39;6.60;79.90
3850;DHT22;1940;51.052;13.678;2023-03-04T14:30:08;6.70;79.60
3850;DHT22;1940;51.052;13.678;2023-03-04T14:32:43;6.60;80.00
3850;DHT22;1940;51.052;13.678;2023-03-04T14:35:29;6.50;80.50
3850;DHT22;1940;51.052;13.678;2023-03-04T14:38:28;6.50;80.40
3850;DHT22;1940;51.052;13.678;2023-03-04T14:41:04;6.50;80.30
3850;DHT22;1940;51.052;13.678;2023-03-04T14:43:37;6.50;80.10
3850;DHT22;1940;51.052;13.678;2023-03-04T14:46:07;6.50;80.40
3850;DHT22;1940;51.052;13.678;2023-03-04T14:48:36;6.60;80.40
3850;DHT22;1940;51.052;13.678;2023-03-04T14:51:02;6.70;80.20
3850;DHT22;1940;51.052;13.678;2023-03-04T14:53:30;6.80;79.80
3850;DHT22;1940;51.052;13.678;2023-03-04T14:56:08;6.80;79.30
3850;DHT22;1940;51.052;13.678;2023-03-04T14:58:38;6.80;79.00
3850;DHT22;1940;51.052;13.678;2023-03-04T15:01:14;6.70;78.80
3850;DHT22;1940;51.052;13.678;2023-03-04T15:03:59;6.70;78.50
3850;DHT22;1940;51.052;13.678;2023-03-04T15:06:27;6.60;78.10
3850;DHT22;1940;51.052;13.678;2023-03-04T15:09:00;6.50;78.70
3850;DHT22;1940;51.052;13.678;2023-03-04T15:11:38;6.40;78.90
3850;DHT22;1940;51.052;13.678;2023-03-04T15:22:31;6.40;77.30
3850;DHT22;1940;51.052;13.678;2023-03-04T15:24:56;6.50;76.80
3850;DHT22;1940;51.052;13.678;2023-03-04T15:27:23;6.40;76.10
3850;DHT22;1940;51.052;13.678;2023-03-04T15:29:50;6.40;75.80
3850;DHT22;1940;51.052;13.678;2023-03-04T15:32:23;6.40;76.00
3850;DHT22;1940;51.052;13.678;2023-03-04T15:34:48;6.40;76.10
3850;DHT22;1940;51.052;13.678;2023-03-04T15:37:20;6.40;75.90
3850;DHT22;1940;51.052;13.678;2023-03-04T15:39:46;6.30;75.10
3850;DHT22;1940;51.052;13.678;2023-03-04T15:42:12;6.20;74.60
3850;DHT22;1940;51.052;13.678;2023-03-04T15:44:38;6.10;74.90
3850;DHT22;1940;51.052;13.678;2023-03-04T15:47:04;6.00;75.20
3850;DHT22;1940;51.052;13.678;2023-03-04T15:49:33;5.90;76.00
3850;DHT22;1940;51.052;13.678;2023-03-04T15:51:59;5.90;76.60
3850;DHT22;1940;51.052;13.678;2023-03-04T15:54:26;5.90;77.00
3850;DHT22;1940;51.052;13.678;2023-03-04T15:56:53;6.00;76.90
3850;DHT22;1940;51.052;13.678;2023-03-04T15:59:18;6.00;77.20
3850;DHT22;1940;51.052;13.678;2023-03-04T16:01:44;6.00;77.40
3850;DHT22;1940;51.052;13.678;2023-03-04T16:04:13;5.90;77.50
3850;DHT22;1940;51.052;13.678;2023-03-04T16:06:42;6.00;77.50
3850;DHT22;1940;51.052;13.678;2023-03-04T16:09:12;5.90;77.70
3850;DHT22;1940;51.052;13.678;2023-03-04T16:11:42;5.80;78.30
3850;DHT22;1940;51.052;13.678;2023-03-04T16:14:11;5.90;78.30
3850;DHT22;1940;51.052;13.678;2023-03-04T16:16:39;5.90;78.50
3850;DHT22;1940;51.052;13.678;2023-03-04T16:19:04;5.90;78.70
3850;DHT22;1940;51.052;13.678;2023-03-04T16:21:30;5.90;78.60
3850;DHT22;1940;51.052;13.678;2023-03-04T16:23:55;5.90;78.50
3850;DHT22;1940;51.052;13.678;2023-03-04T16:26:22;5.70;78.70
3850;DHT22;1940;51.052;13.678;2023-03-04T16:28:49;5.70;79.40
3850;DHT22;1940;51.052;13.678;2023-03-04T16:31:15;5.70;79.40
3850;DHT22;1940;51.052;13.678;2023-03-04T16:33:41;5.70;79.70
3850;DHT22;1940;51.052;13.678;2023-03-04T16:36:21;5.70;79.90
3850;DHT22;1940;51.052;13.678;2023-03-04T16:38:47;5.70;79.90
3850;DHT22;1940;51.052;13.678;2023-03-04T16:41:14;5.80;79.80
3850;DHT22;1940;51.052;13.678;2023-03-04T16:43:41;5.70;80.00
3850;DHT22;1940;51.052;13.678;2023-03-04T16:46:09;5.60;80.60
3850;DHT22;1940;51.052;13.678;2023-03-04T16:48:35;5.60;80.90
3850;DHT22;1940;51.052;13.678;2023-03-04T16:51:12;5.50;81.60
3850;DHT22;1940;51.052;13.678;2023-03-04T16:53:39;5.40;82.80
3850;DHT22;1940;51.052;13.678;2023-03-04T16:56:11;5.20;84.00
3850;DHT22;1940;51.052;13.678;2023-03-04T16:58:36;5.20;84.20
3850;DHT22;1940;51.052;13.678;2023-03-04T17:01:03;5.20;84.40
3850;DHT22;1940;51.052;13.678;2023-03-04T17:03:29;5.10;84.50
3850;DHT22;1940;51.052;13.678;2023-03-04T17:05:55;4.90;85.20
3850;DHT22;1940;51.052;13.678;2023-03-04T17:08:20;4.90;85.80
3850;DHT22;1940;51.052;13.678;2023-03-04T17:10:46;4.80;86.10
3850;DHT22;1940;51.052;13.678;2023-03-04T17:13:13;4.80;86.20
3850;DHT22;1940;51.052;13.678;2023-03-04T17:15:38;4.80;86.00
3850;DHT22;1940;51.052;13.678;2023-03-04T17:18:07;4.80;86.20
3850;DHT22;1940;51.052;13.678;2023-03-04T17:20:32;4.70;86.60
3850;DHT22;1940;51.052;13.678;2023-03-04T17:22:58;4.70;86.60
3850;DHT22;1940;51.052;13.678;2023-03-04T17:25:24;4.70;86.70
3850;DHT22;1940;51.052;13.678;2023-03-04T17:27:59;4.60;87.00
3850;DHT22;1940;51.052;13.678;2023-03-04T17:30:24;4.60;87.20
3850;DHT22;1940;51.052;13.678;2023-03-04T17:32:52;4.60;87.30
3850;DHT22;1940;51.052;13.678;2023-03-04T17:35:18;4.70;87.50
3850;DHT22;1940;51.052;13.678;2023-03-04T17:37:44;4.60;87.50
3850;DHT22;1940;51.052;13.678;2023-03-04T17:40:12;4.60;87.80
3850;DHT22;1940;51.052;13.678;2023-03-04T17:42:42;4.60;88.00
3850;DHT22;1940;51.052;13.678;2023-03-04T17:45:09;4.50;87.80
3850;DHT22;1940;51.052;13.678;2023-03-04T17:47:35;4.50;87.60